METAR Formatted Surface Weather Observation
Issued by NWS

Home | Current Version | Previous Version | Text Only | Print | Product List | Glossary On
Versions: 1 2 3 4 5 6 7 8 9 10 11 12 13 14 15 16 17 18 19 20 21 22 23 24 25 26 27 28 29 30 31
567
SAUS45 KPSR 182003 COR
MTRNYL
METAR KNYL 181957Z 06008KT 7SM FEW120 SCT250 24/M03 A3010 RMK AO2
SLP190 T02391028



USA.gov is the U.S. government's official web portal to all federal, state and local government web resources and services.